sensor_id;sensor_type;location;lat;lon;timestamp;P1;durP1;ratioP1;P2;durP2;ratioP2
14013;SDS011;49110;52.584;13.408;2023-11-21T00:00:24;85.23;;;80.17;;
14013;SDS011;49110;52.584;13.408;2023-11-21T00:01:25;86.77;;;81.57;;
14013;SDS011;49110;52.584;13.408;2023-11-21T00:02:26;84.23;;;79.23;;
14013;SDS011;49110;52.584;13.408;2023-11-21T00:03:28;83.37;;;78.30;;
14013;SDS011;49110;52.584;13.408;2023-11-21T00:04:28;81.77;;;76.43;;
14013;SDS011;49110;52.584;13.408;2023-11-21T00:05:29;87.20;;;81.83;;
14013;SDS011;49110;52.584;13.408;2023-11-21T00:06:29;82.60;;;77.40;;
14013;SDS011;49110;52.584;13.408;2023-11-21T00:07:30;90.73;;;85.33;;
14013;SDS011;49110;52.584;13.408;2023-11-21T00:08:30;91.00;;;85.20;;
14013;SDS011;49110;52.584;13.408;2023-11-21T00:09:31;83.70;;;78.47;;
14013;SDS011;49110;52.584;13.408;2023-11-21T00:10:33;85.40;;;79.93;;
14013;SDS011;49110;52.584;13.408;2023-11-21T00:11:34;85.43;;;80.30;;
14013;SDS011;49110;52.584;13.408;2023-11-21T00:12:35;87.90;;;82.00;;
14013;SDS011;49110;52.584;13.408;2023-11-21T00:13:36;83.90;;;78.30;;
14013;SDS011;49110;52.584;13.408;2023-11-21T00:14:37;88.07;;;82.13;;
14013;SDS011;49110;52.584;13.408;2023-11-21T00:15:38;86.90;;;81.30;;
14013;SDS011;49110;52.584;13.408;2023-11-21T00:16:38;91.00;;;84.97;;
14013;SDS011;49110;52.584;13.408;2023-11-21T00:17:40;99.87;;;93.43;;
14013;SDS011;49110;52.584;13.408;2023-11-21T00:18:40;92.60;;;86.23;;
14013;SDS011;49110;52.584;13.408;2023-11-21T00:19:41;101.53;;;95.10;;
14013;SDS011;49110;52.584;13.408;2023-11-21T00:20:42;99.33;;;92.70;;
14013;SDS011;49110;52.584;13.408;2023-11-21T00:21:43;97.40;;;90.70;;
14013;SDS011;49110;52.584;13.408;2023-11-21T00:22:45;94.93;;;88.80;;
14013;SDS011;49110;52.584;13.408;2023-11-21T00:23:45;90.57;;;84.33;;
14013;SDS011;49110;52.584;13.408;2023-11-21T00:24:46;101.20;;;94.60;;
14013;SDS011;49110;52.584;13.408;2023-11-21T00:25:46;99.77;;;92.87;;
14013;SDS011;49110;52.584;13.408;2023-11-21T00:26:47;97.67;;;91.13;;
14013;SDS011;49110;52.584;13.408;2023-11-21T00:27:48;95.95;;;89.10;;
14013;SDS011;49110;52.584;13.408;2023-11-21T00:28:49;101.00;;;94.07;;
14013;SDS011;49110;52.584;13.408;2023-11-21T00:29:50;98.57;;;91.93;;
14013;SDS011;49110;52.584;13.408;2023-11-21T00:30:50;94.90;;;88.07;;
14013;SDS011;49110;52.584;13.408;2023-11-21T00:31:51;95.67;;;88.80;;
14013;SDS011;49110;52.584;13.408;2023-11-21T00:32:51;92.33;;;85.87;;
14013;SDS011;49110;52.584;13.408;2023-11-21T00:33:52;96.70;;;89.73;;
14013;SDS011;49110;52.584;13.408;2023-11-21T00:34:54;99.90;;;93.13;;
14013;SDS011;49110;52.584;13.408;2023-11-21T00:35:55;95.43;;;88.53;;
14013;SDS011;49110;52.584;13.408;2023-11-21T00:36:55;99.20;;;91.53;;
14013;SDS011;49110;52.584;13.408;2023-11-21T00:37:56;106.20;;;98.20;;
14013;SDS011;49110;52.584;13.408;2023-11-21T00:38:57;113.43;;;105.22;;
14013;SDS011;49110;52.584;13.408;2023-11-21T00:39:59;104.28;;;96.05;;
14013;SDS011;49110;52.584;13.408;2023-11-21T00:40:59;115.13;;;106.73;;
14013;SDS011;49110;52.584;13.408;2023-11-21T00:41:59;113.33;;;105.27;;
14013;SDS011;49110;52.584;13.408;2023-11-21T00:43:00;107.97;;;99.70;;
14013;SDS011;49110;52.584;13.408;2023-11-21T00:44:01;109.30;;;100.73;;
14013;SDS011;49110;52.584;13.408;2023-11-21T00:45:01;112.30;;;103.47;;
14013;SDS011;49110;52.584;13.408;2023-11-21T00:46:04;112.18;;;103.50;;
14013;SDS011;49110;52.584;13.408;2023-11-21T00:47:07;106.72;;;98.25;;
14013;SDS011;49110;52.584;13.408;2023-11-21T00:48:08;119.53;;;110.33;;
14013;SDS011;49110;52.584;13.408;2023-11-21T00:49:08;111.50;;;102.70;;
14013;SDS011;49110;52.584;13.408;2023-11-21T00:50:08;118.30;;;109.13;;
14013;SDS011;49110;52.584;13.408;2023-11-21T00:51:09;124.80;;;114.93;;
14013;SDS011;49110;52.584;13.408;2023-11-21T00:52:10;134.00;;;123.70;;
14013;SDS011;49110;52.584;13.408;2023-11-21T00:53:10;131.03;;;121.00;;
14013;SDS011;49110;52.584;13.408;2023-11-21T00:54:11;130.63;;;120.40;;
14013;SDS011;49110;52.584;13.408;2023-11-21T00:55:11;132.97;;;122.87;;
14013;SDS011;49110;52.584;13.408;2023-11-21T00:56:13;132.67;;;122.40;;
14013;SDS011;49110;52.584;13.408;2023-11-21T00:57:13;127.60;;;117.83;;
14013;SDS011;49110;52.584;13.408;2023-11-21T00:58:14;121.43;;;111.97;;
14013;SDS011;49110;52.584;13.408;2023-11-21T00:59:14;125.00;;;115.40;;
14013;SDS011;49110;52.584;13.408;2023-11-21T01:00:15;121.97;;;112.17;;
14013;SDS011;49110;52.584;13.408;2023-11-21T01:01:20;125.88;;;116.22;;
14013;SDS011;49110;52.584;13.408;2023-11-21T01:02:24;126.53;;;116.37;;
14013;SDS011;49110;52.584;13.408;2023-11-21T01:03:25;126.27;;;116.67;;
14013;SDS011;49110;52.584;13.408;2023-11-21T01:04:26;126.03;;;116.37;;
14013;SDS011;49110;52.584;13.408;2023-11-21T01:05:26;127.97;;;118.17;;
14013;SDS011;49110;52.584;13.408;2023-11-21T01:06:27;133.67;;;123.87;;
14013;SDS011;49110;52.584;13.408;2023-11-21T01:07:27;132.70;;;122.80;;
14013;SDS011;49110;52.584;13.408;2023-11-21T01:08:27;116.90;;;107.53;;
14013;SDS011;49110;52.584;13.408;2023-11-21T01:09:28;128.97;;;118.93;;
14013;SDS011;49110;52.584;13.408;2023-11-21T01:10:30;138.10;;;128.30;;
14013;SDS011;49110;52.584;13.408;2023-11-21T01:11:30;135.13;;;125.20;;
14013;SDS011;49110;52.584;13.408;2023-11-21T01:12:31;119.97;;;110.80;;
14013;SDS011;49110;52.584;13.408;2023-11-21T01:13:31;104.33;;;96.30;;
14013;SDS011;49110;52.584;13.408;2023-11-21T01:14:31;104.67;;;96.37;;
14013;SDS011;49110;52.584;13.408;2023-11-21T01:15:32;115.67;;;106.77;;
14013;SDS011;49110;52.584;13.408;2023-11-21T01:16:33;115.35;;;106.40;;
14013;SDS011;49110;52.584;13.408;2023-11-21T01:17:34;115.93;;;107.30;;
14013;SDS011;49110;52.584;13.408;2023-11-21T01:18:35;110.93;;;102.83;;
14013;SDS011;49110;52.584;13.408;2023-11-21T01:19:36;103.43;;;95.37;;
14013;SDS011;49110;52.584;13.408;2023-11-21T01:20:37;109.17;;;100.73;;
14013;SDS011;49110;52.584;13.408;2023-11-21T01:21:37;104.93;;;96.93;;
14013;SDS011;49110;52.584;13.408;2023-11-21T01:22:38;105.60;;;97.40;;
14013;SDS011;49110;52.584;13.408;2023-11-21T01:23:39;110.80;;;102.67;;
14013;SDS011;49110;52.584;13.408;2023-11-21T01:24:39;107.47;;;99.50;;
14013;SDS011;49110;52.584;13.408;2023-11-21T01:25:40;97.93;;;90.23;;
14013;SDS011;49110;52.584;13.408;2023-11-21T01:26:40;104.83;;;97.03;;
14013;SDS011;49110;52.584;13.408;2023-11-21T01:27:41;98.70;;;91.70;;
14013;SDS011;49110;52.584;13.408;2023-11-21T01:28:43;96.32;;;88.93;;
14013;SDS011;49110;52.584;13.408;2023-11-21T01:29:43;98.80;;;91.67;;
14013;SDS011;49110;52.584;13.408;2023-11-21T01:30:44;98.40;;;91.13;;
14013;SDS011;49110;52.584;13.408;2023-11-21T01:31:44;88.60;;;81.93;;
14013;SDS011;49110;52.584;13.408;2023-11-21T01:32:44;89.00;;;82.40;;
14013;SDS011;49110;52.584;13.408;2023-11-21T01:33:45;88.33;;;81.47;;
14013;SDS011;49110;52.584;13.408;2023-11-21T01:34:45;89.13;;;82.53;;
14013;SDS011;49110;52.584;13.408;2023-11-21T01:35:47;88.00;;;80.87;;
14013;SDS011;49110;52.584;13.408;2023-11-21T01:36:47;94.60;;;87.63;;
14013;SDS011;49110;52.584;13.408;2023-11-21T01:37:48;94.17;;;87.13;;
14013;SDS011;49110;52.584;13.408;2023-11-21T01:38:48;95.53;;;88.03;;
14013;SDS011;49110;52.584;13.408;2023-11-21T01:39:49;103.77;;;95.90;;
14013;SDS011;49110;52.584;13.408;2023-11-21T01:40:49;104.57;;;96.90;;
14013;SDS011;49110;52.584;13.408;2023-11-21T01:41:50;110.27;;;101.83;;
14013;SDS011;49110;52.584;13.408;2023-11-21T01:42:52;114.28;;;106.07;;
14013;SDS011;49110;52.584;13.408;2023-11-21T01:43:53;109.60;;;101.80;;
14013;SDS011;49110;52.584;13.408;2023-11-21T01:44:54;104.17;;;96.83;;
14013;SDS011;49110;52.584;13.408;2023-11-21T01:45:54;108.23;;;100.57;;
14013;SDS011;49110;52.584;13.408;2023-11-21T01:46:56;114.23;;;106.20;;
14013;SDS011;49110;52.584;13.408;2023-11-21T01:47:57;112.77;;;104.93;;
14013;SDS011;49110;52.584;13.408;2023-11-21T01:48:59;107.22;;;99.65;;
14013;SDS011;49110;52.584;13.408;2023-11-21T01:49:59;118.53;;;110.83;;
14013;SDS011;49110;52.584;13.408;2023-11-21T01:51:01;102.93;;;95.90;;
14013;SDS011;49110;52.584;13.408;2023-11-21T01:52:02;107.57;;;100.03;;
14013;SDS011;49110;52.584;13.408;2023-11-21T01:53:04;112.47;;;104.72;;
14013;SDS011;49110;52.584;13.408;2023-11-21T01:54:06;108.10;;;100.55;;
14013;SDS011;49110;52.584;13.408;2023-11-21T01:55:07;114.87;;;107.23;;
14013;SDS011;49110;52.584;13.408;2023-11-21T01:56:12;112.75;;;105.25;;
14013;SDS011;49110;52.584;13.408;2023-11-21T01:57:13;99.10;;;92.20;;
14013;SDS011;49110;52.584;13.408;2023-11-21T01:58:15;98.10;;;91.55;;
14013;SDS011;49110;52.584;13.408;2023-11-21T01:59:19;108.73;;;101.60;;
14013;SDS011;49110;52.584;13.408;2023-11-21T02:00:23;85.63;;;79.80;;
14013;SDS011;49110;52.584;13.408;2023-11-21T02:01:24;87.67;;;81.87;;
14013;SDS011;49110;52.584;13.408;2023-11-21T02:02:25;88.95;;;82.90;;
14013;SDS011;49110;52.584;13.408;2023-11-21T02:03:26;91.87;;;85.83;;
14013;SDS011;49110;52.584;13.408;2023-11-21T02:04:26;92.17;;;86.00;;
14013;SDS011;49110;52.584;13.408;2023-11-21T02:05:27;91.27;;;85.63;;
14013;SDS011;49110;52.584;13.408;2023-11-21T02:06:29;94.07;;;88.00;;
14013;SDS011;49110;52.584;13.408;2023-11-21T02:07:31;83.00;;;77.45;;
14013;SDS011;49110;52.584;13.408;2023-11-21T02:08:32;86.20;;;80.60;;
14013;SDS011;49110;52.584;13.408;2023-11-21T02:09:32;89.33;;;83.83;;
14013;SDS011;49110;52.584;13.408;2023-11-21T02:10:34;91.25;;;85.80;;
14013;SDS011;49110;52.584;13.408;2023-11-21T02:11:36;83.68;;;78.43;;
14013;SDS011;49110;52.584;13.408;2023-11-21T02:12:39;82.95;;;78.05;;
14013;SDS011;49110;52.584;13.408;2023-11-21T02:13:39;94.37;;;88.93;;
14013;SDS011;49110;52.584;13.408;2023-11-21T02:14:43;86.90;;;81.77;;
14013;SDS011;49110;52.584;13.408;2023-11-21T02:15:44;84.90;;;79.97;;
14013;SDS011;49110;52.584;13.408;2023-11-21T02:16:45;84.30;;;79.37;;
14013;SDS011;49110;52.584;13.408;2023-11-21T02:17:47;86.20;;;81.30;;
14013;SDS011;49110;52.584;13.408;2023-11-21T02:18:51;83.33;;;78.47;;
14013;SDS011;49110;52.584;13.408;2023-11-21T02:19:52;84.17;;;79.20;;
14013;SDS011;49110;52.584;13.408;2023-11-21T02:20:53;91.40;;;86.00;;
14013;SDS011;49110;52.584;13.408;2023-11-21T02:21:53;102.23;;;96.47;;
14013;SDS011;49110;52.584;13.408;2023-11-21T02:22:55;96.47;;;91.15;;
14013;SDS011;49110;52.584;13.408;2023-11-21T02:23:59;90.68;;;85.57;;
14013;SDS011;49110;52.584;13.408;2023-11-21T02:25:00;96.93;;;91.57;;
14013;SDS011;49110;52.584;13.408;2023-11-21T02:26:00;100.77;;;95.17;;
14013;SDS011;49110;52.584;13.408;2023-11-21T02:27:04;104.93;;;99.10;;
14013;SDS011;49110;52.584;13.408;2023-11-21T02:28:06;100.40;;;94.88;;
14013;SDS011;49110;52.584;13.408;2023-11-21T02:29:06;94.53;;;89.20;;
14013;SDS011;49110;52.584;13.408;2023-11-21T02:30:10;105.82;;;99.95;;
14013;SDS011;49110;52.584;13.408;2023-11-21T02:31:13;101.05;;;95.47;;
14013;SDS011;49110;52.584;13.408;2023-11-21T02:32:13;100.77;;;95.23;;
14013;SDS011;49110;52.584;13.408;2023-11-21T02:33:14;107.77;;;101.97;;
14013;SDS011;49110;52.584;13.408;2023-11-21T02:34:15;98.93;;;93.50;;
14013;SDS011;49110;52.584;13.408;2023-11-21T02:35:16;113.57;;;107.50;;
14013;SDS011;49110;52.584;13.408;2023-11-21T02:36:16;122.93;;;116.40;;
14013;SDS011;49110;52.584;13.408;2023-11-21T02:37:17;112.30;;;106.33;;
14013;SDS011;49110;52.584;13.408;2023-11-21T02:38:17;117.70;;;111.33;;
14013;SDS011;49110;52.584;13.408;2023-11-21T02:39:18;114.20;;;108.23;;
14013;SDS011;49110;52.584;13.408;2023-11-21T02:40:22;99.18;;;93.82;;
14013;SDS011;49110;52.584;13.408;2023-11-21T02:41:24;94.05;;;88.93;;
14013;SDS011;49110;52.584;13.408;2023-11-21T02:42:25;88.28;;;83.72;;
14013;SDS011;49110;52.584;13.408;2023-11-21T02:43:26;96.67;;;91.60;;
14013;SDS011;49110;52.584;13.408;2023-11-21T02:44:26;101.00;;;95.70;;
14013;SDS011;49110;52.584;13.408;2023-11-21T02:45:27;96.23;;;91.17;;
14013;SDS011;49110;52.584;13.408;2023-11-21T02:46:27;97.27;;;92.17;;
14013;SDS011;49110;52.584;13.408;2023-11-21T02:47:28;100.50;;;95.33;;
14013;SDS011;49110;52.584;13.408;2023-11-21T02:48:28;99.13;;;93.83;;
14013;SDS011;49110;52.584;13.408;2023-11-21T02:49:30;101.57;;;96.18;;
14013;SDS011;49110;52.584;13.408;2023-11-21T02:50:31;91.72;;;86.78;;
14013;SDS011;49110;52.584;13.408;2023-11-21T02:51:32;98.60;;;93.33;;
14013;SDS011;49110;52.584;13.408;2023-11-21T02:52:33;96.80;;;91.73;;
14013;SDS011;49110;52.584;13.408;2023-11-21T02:53:35;94.93;;;89.70;;
14013;SDS011;49110;52.584;13.408;2023-11-21T02:54:35;109.90;;;104.30;;
14013;SDS011;49110;52.584;13.408;2023-11-21T02:55:36;105.00;;;99.47;;
14013;SDS011;49110;52.584;13.408;2023-11-21T02:56:36;105.40;;;99.90;;
14013;SDS011;49110;52.584;13.408;2023-11-21T02:57:37;92.13;;;87.43;;
14013;SDS011;49110;52.584;13.408;2023-11-21T02:58:37;96.03;;;91.10;;
14013;SDS011;49110;52.584;13.408;2023-11-21T02:59:41;97.30;;;92.35;;
14013;SDS011;49110;52.584;13.408;2023-11-21T03:00:42;100.90;;;95.70;;
14013;SDS011;49110;52.584;13.408;2023-11-21T03:01:42;100.73;;;95.47;;
14013;SDS011;49110;52.584;13.408;2023-11-21T03:02:43;111.20;;;105.40;;
14013;SDS011;49110;52.584;13.408;2023-11-21T03:03:43;102.80;;;97.47;;
14013;SDS011;49110;52.584;13.408;2023-11-21T03:04:44;109.53;;;103.97;;
14013;SDS011;49110;52.584;13.408;2023-11-21T03:05:44;120.13;;;113.97;;
14013;SDS011;49110;52.584;13.408;2023-11-21T03:06:45;134.40;;;127.40;;
14013;SDS011;49110;52.584;13.408;2023-11-21T03:07:45;133.60;;;126.83;;
14013;SDS011;49110;52.584;13.408;2023-11-21T03:08:46;128.23;;;121.60;;
14013;SDS011;49110;52.584;13.408;2023-11-21T03:09:47;107.93;;;102.38;;
14013;SDS011;49110;52.584;13.408;2023-11-21T03:10:48;114.33;;;108.33;;
14013;SDS011;49110;52.584;13.408;2023-11-21T03:11:48;107.80;;;102.17;;
14013;SDS011;49110;52.584;13.408;2023-11-21T03:12:48;112.37;;;106.63;;
14013;SDS011;49110;52.584;13.408;2023-11-21T03:13:49;106.27;;;100.80;;
14013;SDS011;49110;52.584;13.408;2023-11-21T03:14:50;103.17;;;97.80;;
14013;SDS011;49110;52.584;13.408;2023-11-21T03:15:50;93.87;;;89.07;;
14013;SDS011;49110;52.584;13.408;2023-11-21T03:16:50;80.93;;;76.57;;
14013;SDS011;49110;52.584;13.408;2023-11-21T03:17:51;80.53;;;76.17;;
14013;SDS011;49110;52.584;13.408;2023-11-21T03:18:51;88.30;;;83.73;;
14013;SDS011;49110;52.584;13.408;2023-11-21T03:19:53;86.18;;;81.78;;
14013;SDS011;49110;52.584;13.408;2023-11-21T03:20:54;89.35;;;84.75;;
14013;SDS011;49110;52.584;13.408;2023-11-21T03:21:55;81.00;;;76.73;;
14013;SDS011;49110;52.584;13.408;2023-11-21T03:22:55;72.77;;;68.67;;
14013;SDS011;49110;52.584;13.408;2023-11-21T03:23:56;79.83;;;75.60;;
14013;SDS011;49110;52.584;13.408;2023-11-21T03:24:56;77.70;;;73.63;;
14013;SDS011;49110;52.584;13.408;2023-11-21T03:25:57;80.17;;;75.90;;
14013;SDS011;49110;52.584;13.408;2023-11-21T03:26:59;84.80;;;80.38;;
14013;SDS011;49110;52.584;13.408;2023-11-21T03:28:00;89.20;;;84.53;;
14013;SDS011;49110;52.584;13.408;2023-11-21T03:29:00;93.67;;;88.83;;
14013;SDS011;49110;52.584;13.408;2023-11-21T03:30:01;89.47;;;84.73;;
14013;SDS011;49110;52.584;13.408;2023-11-21T03:31:04;94.40;;;89.65;;
14013;SDS011;49110;52.584;13.408;2023-11-21T03:32:06;80.68;;;76.53;;
14013;SDS011;49110;52.584;13.408;2023-11-21T03:33:07;82.75;;;78.38;;
14013;SDS011;49110;52.584;13.408;2023-11-21T03:34:10;89.97;;;85.20;;
14013;SDS011;49110;52.584;13.408;2023-11-21T03:35:15;92.97;;;88.20;;
14013;SDS011;49110;52.584;13.408;2023-11-21T03:36:15;86.40;;;81.93;;
14013;SDS011;49110;52.584;13.408;2023-11-21T03:37:18;88.30;;;83.70;;
14013;SDS011;49110;52.584;13.408;2023-11-21T03:38:20;82.47;;;78.13;;
14013;SDS011;49110;52.584;13.408;2023-11-21T03:39:21;84.87;;;80.47;;
14013;SDS011;49110;52.584;13.408;2023-11-21T03:40:22;82.10;;;77.70;;
14013;SDS011;49110;52.584;13.408;2023-11-21T03:41:23;80.93;;;76.63;;
14013;SDS011;49110;52.584;13.408;2023-11-21T03:42:23;87.47;;;82.90;;
14013;SDS011;49110;52.584;13.408;2023-11-21T03:43:26;80.57;;;76.28;;
14013;SDS011;49110;52.584;13.408;2023-11-21T03:44:27;77.80;;;73.67;;
14013;SDS011;49110;52.584;13.408;2023-11-21T03:45:27;80.90;;;76.63;;
14013;SDS011;49110;52.584;13.408;2023-11-21T03:46:28;73.03;;;68.87;;
14013;SDS011;49110;52.584;13.408;2023-11-21T03:47:28;74.47;;;70.50;;
14013;SDS011;49110;52.584;13.408;2023-11-21T03:48:29;76.23;;;72.13;;
14013;SDS011;49110;52.584;13.408;2023-11-21T03:49:30;76.10;;;72.03;;
14013;SDS011;49110;52.584;13.408;2023-11-21T03:50:31;79.00;;;74.77;;
14013;SDS011;49110;52.584;13.408;2023-11-21T03:51:31;79.53;;;75.27;;
14013;SDS011;49110;52.584;13.408;2023-11-21T03:52:32;76.90;;;72.77;;
14013;SDS011;49110;52.584;13.408;2023-11-21T03:53:32;76.50;;;72.30;;
14013;SDS011;49110;52.584;13.408;2023-11-21T03:54:33;84.97;;;80.23;;
14013;SDS011;49110;52.584;13.408;2023-11-21T03:55:34;94.60;;;89.63;;
14013;SDS011;49110;52.584;13.408;2023-11-21T03:56:34;91.60;;;86.80;;
14013;SDS011;49110;52.584;13.408;2023-11-21T03:57:35;89.33;;;84.63;;
14013;SDS011;49110;52.584;13.408;2023-11-21T03:58:35;83.80;;;79.30;;
14013;SDS011;49110;52.584;13.408;2023-11-21T03:59:36;79.33;;;75.17;;
14013;SDS011;49110;52.584;13.408;2023-11-21T04:00:39;73.95;;;69.82;;
14013;SDS011;49110;52.584;13.408;2023-11-21T04:01:39;69.00;;;65.20;;
14013;SDS011;49110;52.584;13.408;2023-11-21T04:02:40;76.60;;;72.47;;
14013;SDS011;49110;52.584;13.408;2023-11-21T04:03:40;83.07;;;78.57;;
14013;SDS011;49110;52.584;13.408;2023-11-21T04:04:41;84.33;;;79.77;;
14013;SDS011;49110;52.584;13.408;2023-11-21T04:05:42;82.40;;;77.93;;
14013;SDS011;49110;52.584;13.408;2023-11-21T04:06:42;83.00;;;78.63;;
14013;SDS011;49110;52.584;13.408;2023-11-21T04:07:43;79.30;;;75.00;;
14013;SDS011;49110;52.584;13.408;2023-11-21T04:08:46;74.63;;;70.43;;
14013;SDS011;49110;52.584;13.408;2023-11-21T04:09:47;74.35;;;70.25;;
14013;SDS011;49110;52.584;13.408;2023-11-21T04:10:47;76.87;;;72.60;;
14013;SDS011;49110;52.584;13.408;2023-11-21T04:11:48;68.50;;;64.82;;
14013;SDS011;49110;52.584;13.408;2023-11-21T04:12:49;61.57;;;58.13;;
14013;SDS011;49110;52.584;13.408;2023-11-21T04:13:49;61.10;;;57.60;;
14013;SDS011;49110;52.584;13.408;2023-11-21T04:14:50;70.33;;;66.47;;
14013;SDS011;49110;52.584;13.408;2023-11-21T04:15:50;67.50;;;63.77;;
14013;SDS011;49110;52.584;13.408;2023-11-21T04:16:51;68.87;;;65.07;;
14013;SDS011;49110;52.584;13.408;2023-11-21T04:17:51;65.87;;;62.20;;
14013;SDS011;49110;52.584;13.408;2023-11-21T04:18:52;61.60;;;58.17;;
14013;SDS011;49110;52.584;13.408;2023-11-21T04:19:52;58.03;;;54.40;;
14013;SDS011;49110;52.584;13.408;2023-11-21T04:20:53;62.47;;;59.07;;
14013;SDS011;49110;52.584;13.408;2023-11-21T04:21:53;60.47;;;57.07;;
14013;SDS011;49110;52.584;13.408;2023-11-21T04:22:53;63.73;;;60.03;;
14013;SDS011;49110;52.584;13.408;2023-11-21T04:23:54;63.63;;;60.07;;
14013;SDS011;49110;52.584;13.408;2023-11-21T04:24:54;64.10;;;60.50;;
14013;SDS011;49110;52.584;13.408;2023-11-21T04:25:55;65.57;;;61.83;;
14013;SDS011;49110;52.584;13.408;2023-11-21T04:26:57;66.28;;;62.40;;
14013;SDS011;49110;52.584;13.408;2023-11-21T04:27:57;67.67;;;63.83;;
14013;SDS011;49110;52.584;13.408;2023-11-21T04:28:58;63.67;;;60.07;;
14013;SDS011;49110;52.584;13.408;2023-11-21T04:29:58;63.00;;;59.53;;
14013;SDS011;49110;52.584;13.408;2023-11-21T04:30:59;72.20;;;68.23;;
14013;SDS011;49110;52.584;13.408;2023-11-21T04:32:00;64.77;;;61.10;;
14013;SDS011;49110;52.584;13.408;2023-11-21T04:33:02;66.90;;;63.30;;
14013;SDS011;49110;52.584;13.408;2023-11-21T04:34:03;60.17;;;56.77;;
14013;SDS011;49110;52.584;13.408;2023-11-21T04:35:04;60.78;;;57.42;;
14013;SDS011;49110;52.584;13.408;2023-11-21T04:36:05;61.17;;;57.72;;
14013;SDS011;49110;52.584;13.408;2023-11-21T04:37:06;60.87;;;57.37;;
14013;SDS011;49110;52.584;13.408;2023-11-21T04:38:06;60.70;;;57.30;;
14013;SDS011;49110;52.584;13.408;2023-11-21T04:39:07;56.28;;;53.15;;
14013;SDS011;49110;52.584;13.408;2023-11-21T04:40:09;60.67;;;57.30;;
14013;SDS011;49110;52.584;13.408;2023-11-21T04:41:09;60.55;;;57.15;;
14013;SDS011;49110;52.584;13.408;2023-11-21T04:42:11;59.75;;;56.50;;
14013;SDS011;49110;52.584;13.408;2023-11-21T04:43:12;58.37;;;55.07;;
14013;SDS011;49110;52.584;13.408;2023-11-21T04:44:13;56.60;;;53.40;;
14013;SDS011;49110;52.584;13.408;2023-11-21T04:45:13;56.67;;;53.47;;
14013;SDS011;49110;52.584;13.408;2023-11-21T04:46:14;56.10;;;52.90;;
14013;SDS011;49110;52.584;13.408;2023-11-21T04:47:15;58.33;;;55.03;;
14013;SDS011;49110;52.584;13.408;2023-11-21T04:48:15;59.03;;;55.73;;
14013;SDS011;49110;52.584;13.408;2023-11-21T04:49:16;61.83;;;58.30;;
14013;SDS011;49110;52.584;13.408;2023-11-21T04:50:16;55.73;;;52.63;;
14013;SDS011;49110;52.584;13.408;2023-11-21T04:51:17;55.47;;;52.33;;
14013;SDS011;49110;52.584;13.408;2023-11-21T04:52:17;57.93;;;54.67;;
14013;SDS011;49110;52.584;13.408;2023-11-21T04:53:20;54.30;;;51.15;;
14013;SDS011;49110;52.584;13.408;2023-11-21T04:54:20;58.43;;;55.13;;
14013;SDS011;49110;52.584;13.408;2023-11-21T04:55:21;54.90;;;51.80;;
14013;SDS011;49110;52.584;13.408;2023-11-21T04:56:21;55.70;;;52.50;;
14013;SDS011;49110;52.584;13.408;2023-11-21T04:57:22;53.00;;;50.03;;
14013;SDS011;49110;52.584;13.408;2023-11-21T04:58:22;56.23;;;53.00;;
14013;SDS011;49110;52.584;13.408;2023-11-21T04:59:23;54.77;;;51.53;;
14013;SDS011;49110;52.584;13.408;2023-11-21T05:00:27;53.03;;;50.00;;
14013;SDS011;49110;52.584;13.408;2023-11-21T05:01:27;57.40;;;54.17;;
14013;SDS011;49110;52.584;13.408;2023-11-21T05:02:28;55.03;;;51.97;;
14013;SDS011;49110;52.584;13.408;2023-11-21T05:03:28;52.57;;;49.50;;
14013;SDS011;49110;52.584;13.408;2023-11-21T05:04:29;50.92;;;48.00;;
14013;SDS011;49110;52.584;13.408;2023-11-21T05:05:30;54.33;;;51.03;;
14013;SDS011;49110;52.584;13.408;2023-11-21T05:06:31;53.00;;;49.80;;
14013;SDS011;49110;52.584;13.408;2023-11-21T05:07:33;53.20;;;50.10;;
14013;SDS011;49110;52.584;13.408;2023-11-21T05:08:35;53.33;;;50.30;;
14013;SDS011;49110;52.584;13.408;2023-11-21T05:09:40;52.00;;;48.95;;
14013;SDS011;49110;52.584;13.408;2023-11-21T05:10:41;52.20;;;49.25;;
14013;SDS011;49110;52.584;13.408;2023-11-21T05:11:41;54.07;;;51.00;;
14013;SDS011;49110;52.584;13.408;2023-11-21T05:12:42;54.23;;;51.13;;
14013;SDS011;49110;52.584;13.408;2023-11-21T05:13:42;57.77;;;54.47;;
14013;SDS011;49110;52.584;13.408;2023-11-21T05:14:43;55.47;;;52.37;;
14013;SDS011;49110;52.584;13.408;2023-11-21T05:15:44;54.77;;;51.77;;
14013;SDS011;49110;52.584;13.408;2023-11-21T05:16:44;62.22;;;58.65;;
14013;SDS011;49110;52.584;13.408;2023-11-21T05:17:45;65.32;;;61.72;;
14013;SDS011;49110;52.584;13.408;2023-11-21T05:18:46;64.30;;;60.80;;
14013;SDS011;49110;52.584;13.408;2023-11-21T05:19:47;61.10;;;57.40;;
14013;SDS011;49110;52.584;13.408;2023-11-21T05:20:48;62.33;;;58.92;;
14013;SDS011;49110;52.584;13.408;2023-11-21T05:21:49;57.63;;;54.38;;
14013;SDS011;49110;52.584;13.408;2023-11-21T05:22:50;59.00;;;55.73;;
14013;SDS011;49110;52.584;13.408;2023-11-21T05:23:51;58.40;;;54.90;;
14013;SDS011;49110;52.584;13.408;2023-11-21T05:24:51;56.00;;;52.87;;
14013;SDS011;49110;52.584;13.408;2023-11-21T05:25:51;56.17;;;52.90;;
14013;SDS011;49110;52.584;13.408;2023-11-21T05:26:52;52.37;;;49.40;;
14013;SDS011;49110;52.584;13.408;2023-11-21T05:27:53;53.57;;;50.57;;
14013;SDS011;49110;52.584;13.408;2023-11-21T05:28:54;54.28;;;51.30;;
14013;SDS011;49110;52.584;13.408;2023-11-21T05:29:55;51.60;;;48.67;;
14013;SDS011;49110;52.584;13.408;2023-11-21T05:30:55;51.73;;;48.83;;
14013;SDS011;49110;52.584;13.408;2023-11-21T05:31:56;53.83;;;50.63;;
14013;SDS011;49110;52.584;13.408;2023-11-21T05:32:56;53.07;;;50.07;;
14013;SDS011;49110;52.584;13.408;2023-11-21T05:33:57;50.77;;;47.97;;
14013;SDS011;49110;52.584;13.408;2023-11-21T05:34:57;52.97;;;49.97;;
14013;SDS011;49110;52.584;13.408;2023-11-21T05:35:58;52.77;;;49.67;;
14013;SDS011;49110;52.584;13.408;2023-11-21T05:36:59;51.70;;;48.77;;
14013;SDS011;49110;52.584;13.408;2023-11-21T05:37:59;55.43;;;52.37;;
14013;SDS011;49110;52.584;13.408;2023-11-21T05:39:00;53.17;;;50.20;;
14013;SDS011;49110;52.584;13.408;2023-11-21T05:40:00;52.57;;;49.60;;
14013;SDS011;49110;52.584;13.408;2023-11-21T05:41:05;49.75;;;46.95;;
14013;SDS011;49110;52.584;13.408;2023-11-21T05:42:06;47.67;;;44.93;;
14013;SDS011;49110;52.584;13.408;2023-11-21T05:43:09;48.72;;;45.97;;
14013;SDS011;49110;52.584;13.408;2023-11-21T05:44:09;50.50;;;47.70;;
14013;SDS011;49110;52.584;13.408;2023-11-21T05:45:09;48.07;;;45.40;;
14013;SDS011;49110;52.584;13.408;2023-11-21T05:46:10;49.17;;;46.47;;
14013;SDS011;49110;52.584;13.408;2023-11-21T05:47:11;49.67;;;46.90;;
14013;SDS011;49110;52.584;13.408;2023-11-21T05:48:13;48.92;;;46.17;;
14013;SDS011;49110;52.584;13.408;2023-11-21T05:49:14;47.23;;;44.63;;